Shanghai Express — DPCK — position and weather

sailwx.info

Track history (hours):
 
Tides and Currents Weather Stations Pressure Air Temp Water Temp Dewpoint Dewpoint Depression Visibility Wind Speed Wind Dir Waves Ship Positions

Shanghai Express

Last reported at 2014-Aug-30 12:00 UTC. Time now 2014-Sep-02 19:04 UTC.
Position N 14°06' E 052°18'.

Length 320.6 m; beam 42.8 m; draft 14.5 m.

Type: Ship. MMSI: 211367460.

Wind from 040 at 10 knots

Waves 0.5 meters (2 feet), 3 second period

Barometer 1005.0 mb
Air temperature 27.5 ° C
Visibility: greater than 5.4 NM
Dewpoint 24.1 ° C
Water temperature 26.0 ° C

Date/timePositionNaut miles runAvg speedWind from/ knotsBaromVisibWave heightAir tempDewpointWater temp
2014-Aug-30 12:00N 14°06' E 052°18'44918.7 040 / 101005.0 5.4 0.527.524.126.0
2014-Aug-29 12:00N 11°48' E 045°00'   999 / 31002.5 5.4 33.524.830.0
2014-Aug-26 06:07N 30°19' E 032°24'0 0.0
2014-Aug-26 05:18N 30°19' E 032°24'10 3.3
2014-Aug-26 02:10N 30°29' E 032°21'6 9.9
2014-Aug-26 01:34N 30°34' E 032°18'8 7.6
2014-Aug-26 00:33N 30°42' E 032°21'8 8.5
2014-Aug-25 23:34N 30°50' E 032°19'9 8.7
2014-Aug-25 22:33N 30°59' E 032°19'9 8.6
2014-Aug-25 21:32N 31°08' E 032°19'8 8.0
2014-Aug-25 20:33N 31°15' E 032°21'9 8.7
2014-Aug-25 19:34N 31°24' E 032°22'2 2.3
2014-Aug-25 18:31N 31°25' E 032°20'0 0.0
2014-Aug-25 17:28N 31°25' E 032°20'0 0.0
2014-Aug-25 16:33N 31°25' E 032°20'0 0.0
2014-Aug-25 15:21N 31°25' E 032°20'0 0.0
2014-Aug-25 14:26N 31°25' E 032°20'0 0.0
2014-Aug-25 13:32N 31°25' E 032°20'0 0.0
2014-Aug-25 12:32N 31°25' E 032°20'0 0.0
2014-Aug-25 11:19N 31°25' E 032°20'0 0.0
2014-Aug-25 10:31N 31°25' E 032°20'0 0.0
2014-Aug-25 09:29N 31°25' E 032°20'0 0.0
2014-Aug-25 08:30N 31°25' E 032°20'1 0.8
2014-Aug-25 07:33N 31°25' E 032°19'1212.3
2014-Aug-25 06:33N 31°34' E 032°09'1413.8
2014-Aug-25 05:34N 31°43' E 031°57'1312.9
2014-Aug-25 04:33N 31°34' E 031°47'6 4.7
2014-Aug-25 03:16N 31°28' E 031°45'0 0.0
2014-Aug-25 02:32N 31°28' E 031°45'0 0.0
2014-Aug-25 01:23N 31°28' E 031°45'0 0.0
2014-Aug-24 23:31N 31°28' E 031°46'0 0.0
2014-Aug-24 22:30N 31°28' E 031°45'0 0.0
2014-Aug-24 20:10N 31°28' E 031°46'0 0.0
2014-Aug-24 19:16N 31°28' E 031°46'0 0.2
2014-Aug-24 18:33N 31°28' E 031°46'0 0.2
2014-Aug-24 17:33N 31°28' E 031°46'0 0.0
2014-Aug-24 16:33N 31°28' E 031°46'2 2.1
2014-Aug-24 15:33N 31°30' E 031°46'7 7.2
2014-Aug-24 14:33N 31°37' E 031°47'6 6.3
2014-Aug-24 13:33N 31°42' E 031°43'1111.4
2014-Aug-24 12:33N 31°48' E 031°32'1818.3
2014-Aug-24 11:33N 31°54' E 031°11'1918.4
2014-Aug-24 10:33N 32°00' E 030°51'3417.1
2014-Aug-24 08:33N 32°12' E 030°13'1 1.2
2014-Aug-24 07:32N 32°13' E 030°12'1 1.2
2014-Aug-24 06:33N 32°13' E 030°10'1 1.2
2014-Aug-24 05:31N 32°13' E 030°09'5413.7
2014-Aug-24 01:33N 32°29' E 029°08'1917.2
2014-Aug-24 00:25N 32°36' E 028°46'1517.4
2014-Aug-23 23:33N 32°41' E 028°29'20617.8
2014-Aug-23 12:00N 33°48' E 024°36'15618.5 320 / 151014.5 5.4 1.031.5 26.0
2014-Aug-23 03:33N 34°38' E 021°37'4417.8
2014-Aug-23 01:06N 34°52' E 020°47'23618.0
2014-Aug-22 12:00N 36°06' E 016°12'6217.7 220 / 101016.0 5.4 0.528.523.726.0
2014-Aug-22 08:30N 36°27' E 015°00'1919.8
2014-Aug-22 07:33N 36°35' E 014°39'2020.4
2014-Aug-22 06:34N 36°42' E 014°15'1817.8
2014-Aug-22 05:33N 36°49' E 013°55'1717.5
2014-Aug-22 04:33N 36°57' E 013°35'7317.6
2014-Aug-22 00:25N 37°27' E 012°12'14918.2
2014-Aug-21 16:14N 38°51' E 009°35'1217.9
2014-Aug-21 15:33N 38°58' E 009°22'1716.5
2014-Aug-21 14:33N 39°09' E 009°06'4 4.2
2014-Aug-21 13:33N 39°13' E 009°04'0 0.0
2014-Aug-21 12:33N 39°13' E 009°04'0 0.0
2014-Aug-21 11:33N 39°13' E 009°04'0 0.0
2014-Aug-21 10:33N 39°13' E 009°04'0 0.0
2014-Aug-21 09:33N 39°13' E 009°04'0 0.0
2014-Aug-21 08:33N 39°13' E 009°04'0 0.0
2014-Aug-21 07:32N 39°13' E 009°04'0 0.0
2014-Aug-21 06:32N 39°13' E 009°04'0 0.0
2014-Aug-21 05:33N 39°13' E 009°04'0 0.2
2014-Aug-21 04:34N 39°13' E 009°04'4 3.5
2014-Aug-21 03:33N 39°10' E 009°07'1010.3
2014-Aug-21 02:34N 38°60' E 009°05'1716.6
2014-Aug-21 01:34N 38°48' E 008°51'3316.3
2014-Aug-20 23:33N 38°38' E 008°10'19616.9
2014-Aug-20 12:00N 37°42' E 004°12'   280 / 71017.0 5.4 0.527.523.426.0
Track history (hours):
 
Tides and Currents Weather Stations Pressure Air Temp Water Temp Dewpoint Dewpoint Depression Visibility Wind Speed Wind Dir Waves Ship Positions

Shanghai Express

Last reported at 2014-Aug-30 12:00 UTC. Time now 2014-Sep-02 19:04 UTC.
Position N 14°06' E 052°18'.

Length 320.6 m; beam 42.8 m; draft 14.5 m.

Type: Ship. MMSI: 211367460.

Wind from 040 at 10 knots

Waves 0.5 meters (2 feet), 3 second period

Barometer 1005.0 mb
Air temperature 27.5 ° C
Visibility: greater than 5.4 NM
Dewpoint 24.1 ° C
Water temperature 26.0 ° C

Date/timePositionNaut miles runAvg speedWind from/ knotsBaromVisibWave heightAir tempDewpointWater temp
2014-Aug-30 12:00N 14°06' E 052°18'44918.7 040 / 101005.0 5.4 0.527.524.126.0
2014-Aug-29 12:00N 11°48' E 045°00'   999 / 31002.5 5.4 33.524.830.0
2014-Aug-26 06:07N 30°19' E 032°24'0 0.0
2014-Aug-26 05:18N 30°19' E 032°24'10 3.3
2014-Aug-26 02:10N 30°29' E 032°21'6 9.9
2014-Aug-26 01:34N 30°34' E 032°18'8 7.6
2014-Aug-26 00:33N 30°42' E 032°21'8 8.5
2014-Aug-25 23:34N 30°50' E 032°19'9 8.7
2014-Aug-25 22:33N 30°59' E 032°19'9 8.6
2014-Aug-25 21:32N 31°08' E 032°19'8 8.0
2014-Aug-25 20:33N 31°15' E 032°21'9 8.7
2014-Aug-25 19:34N 31°24' E 032°22'2 2.3
2014-Aug-25 18:31N 31°25' E 032°20'0 0.0
2014-Aug-25 17:28N 31°25' E 032°20'0 0.0
2014-Aug-25 16:33N 31°25' E 032°20'0 0.0
2014-Aug-25 15:21N 31°25' E 032°20'0 0.0
2014-Aug-25 14:26N 31°25' E 032°20'0 0.0
2014-Aug-25 13:32N 31°25' E 032°20'0 0.0
2014-Aug-25 12:32N 31°25' E 032°20'0 0.0
2014-Aug-25 11:19N 31°25' E 032°20'0 0.0
2014-Aug-25 10:31N 31°25' E 032°20'0 0.0
2014-Aug-25 09:29N 31°25' E 032°20'0 0.0
2014-Aug-25 08:30N 31°25' E 032°20'1 0.8
2014-Aug-25 07:33N 31°25' E 032°19'1212.3
2014-Aug-25 06:33N 31°34' E 032°09'1413.8
2014-Aug-25 05:34N 31°43' E 031°57'1312.9
2014-Aug-25 04:33N 31°34' E 031°47'6 4.7
2014-Aug-25 03:16N 31°28' E 031°45'0 0.0
2014-Aug-25 02:32N 31°28' E 031°45'0 0.0
2014-Aug-25 01:23N 31°28' E 031°45'0 0.0
2014-Aug-24 23:31N 31°28' E 031°46'0 0.0
2014-Aug-24 22:30N 31°28' E 031°45'0 0.0
2014-Aug-24 20:10N 31°28' E 031°46'0 0.0
2014-Aug-24 19:16N 31°28' E 031°46'0 0.2
2014-Aug-24 18:33N 31°28' E 031°46'0 0.2
2014-Aug-24 17:33N 31°28' E 031°46'0 0.0
2014-Aug-24 16:33N 31°28' E 031°46'2 2.1
2014-Aug-24 15:33N 31°30' E 031°46'7 7.2
2014-Aug-24 14:33N 31°37' E 031°47'6 6.3
2014-Aug-24 13:33N 31°42' E 031°43'1111.4
2014-Aug-24 12:33N 31°48' E 031°32'1818.3
2014-Aug-24 11:33N 31°54' E 031°11'1918.4
2014-Aug-24 10:33N 32°00' E 030°51'3417.1
2014-Aug-24 08:33N 32°12' E 030°13'1 1.2
2014-Aug-24 07:32N 32°13' E 030°12'1 1.2
2014-Aug-24 06:33N 32°13' E 030°10'1 1.2
2014-Aug-24 05:31N 32°13' E 030°09'5413.7
2014-Aug-24 01:33N 32°29' E 029°08'1917.2
2014-Aug-24 00:25N 32°36' E 028°46'1517.4
2014-Aug-23 23:33N 32°41' E 028°29'20617.8
2014-Aug-23 12:00N 33°48' E 024°36'15618.5 320 / 151014.5 5.4 1.031.5 26.0
2014-Aug-23 03:33N 34°38' E 021°37'4417.8
2014-Aug-23 01:06N 34°52' E 020°47'23618.0
2014-Aug-22 12:00N 36°06' E 016°12'6217.7 220 / 101016.0 5.4 0.528.523.726.0
2014-Aug-22 08:30N 36°27' E 015°00'1919.8
2014-Aug-22 07:33N 36°35' E 014°39'2020.4
2014-Aug-22 06:34N 36°42' E 014°15'1817.8
2014-Aug-22 05:33N 36°49' E 013°55'1717.5
2014-Aug-22 04:33N 36°57' E 013°35'7317.6
2014-Aug-22 00:25N 37°27' E 012°12'14918.2
2014-Aug-21 16:14N 38°51' E 009°35'1217.9
2014-Aug-21 15:33N 38°58' E 009°22'1716.5
2014-Aug-21 14:33N 39°09' E 009°06'4 4.2
2014-Aug-21 13:33N 39°13' E 009°04'0 0.0
2014-Aug-21 12:33N 39°13' E 009°04'0 0.0
2014-Aug-21 11:33N 39°13' E 009°04'0 0.0
2014-Aug-21 10:33N 39°13' E 009°04'0 0.0
2014-Aug-21 09:33N 39°13' E 009°04'0 0.0
2014-Aug-21 08:33N 39°13' E 009°04'0 0.0
2014-Aug-21 07:32N 39°13' E 009°04'0 0.0
2014-Aug-21 06:32N 39°13' E 009°04'0 0.0
2014-Aug-21 05:33N 39°13' E 009°04'0 0.2
2014-Aug-21 04:34N 39°13' E 009°04'4 3.5
2014-Aug-21 03:33N 39°10' E 009°07'1010.3
2014-Aug-21 02:34N 38°60' E 009°05'1716.6
2014-Aug-21 01:34N 38°48' E 008°51'3316.3
2014-Aug-20 23:33N 38°38' E 008°10'19616.9
2014-Aug-20 12:00N 37°42' E 004°12'   280 / 71017.0 5.4 0.527.523.426.0

Dump ship's entire track history